sensor_id;sensor_type;location;lat;lon;timestamp;P1;durP1;ratioP1;P2;durP2;ratioP2
34832;SDS011;55941;50.800;4.342;2023-04-01T00:00:53;21.88;;;3.75;;
34832;SDS011;55941;50.800;4.342;2023-04-01T00:03:21;21.95;;;4.68;;
34832;SDS011;55941;50.800;4.342;2023-04-01T00:05:48;18.55;;;3.80;;
34832;SDS011;55941;50.800;4.342;2023-04-01T00:08:14;29.02;;;3.75;;
34832;SDS011;55941;50.800;4.342;2023-04-01T00:10:40;29.02;;;3.88;;
34832;SDS011;55941;50.800;4.342;2023-04-01T00:13:06;18.52;;;3.47;;
34832;SDS011;55941;50.800;4.342;2023-04-01T00:15:32;22.40;;;3.92;;
34832;SDS011;55941;50.800;4.342;2023-04-01T00:17:58;18.58;;;2.90;;
34832;SDS011;55941;50.800;4.342;2023-04-01T00:20:24;26.45;;;3.90;;
34832;SDS011;55941;50.800;4.342;2023-04-01T00:22:50;14.75;;;2.78;;
34832;SDS011;55941;50.800;4.342;2023-04-01T00:25:16;16.52;;;3.63;;
34832;SDS011;55941;50.800;4.342;2023-04-01T00:27:42;18.33;;;3.42;;
34832;SDS011;55941;50.800;4.342;2023-04-01T00:30:08;15.98;;;2.58;;
34832;SDS011;55941;50.800;4.342;2023-04-01T00:32:35;18.83;;;3.22;;
34832;SDS011;55941;50.800;4.342;2023-04-01T00:35:01;19.33;;;3.00;;
34832;SDS011;55941;50.800;4.342;2023-04-01T00:37:28;17.38;;;2.67;;
34832;SDS011;55941;50.800;4.342;2023-04-01T00:39:54;13.07;;;2.80;;
34832;SDS011;55941;50.800;4.342;2023-04-01T00:42:20;17.42;;;2.92;;
34832;SDS011;55941;50.800;4.342;2023-04-01T00:44:55;20.77;;;3.20;;
34832;SDS011;55941;50.800;4.342;2023-04-01T00:47:21;16.48;;;3.83;;
34832;SDS011;55941;50.800;4.342;2023-04-01T00:49:50;15.32;;;3.35;;
34832;SDS011;55941;50.800;4.342;2023-04-01T00:52:19;20.08;;;3.80;;
34832;SDS011;55941;50.800;4.342;2023-04-01T00:54:50;19.85;;;4.53;;
34832;SDS011;55941;50.800;4.342;2023-04-01T00:57:23;19.00;;;4.22;;
34832;SDS011;55941;50.800;4.342;2023-04-01T00:59:56;14.77;;;3.88;;
34832;SDS011;55941;50.800;4.342;2023-04-01T01:02:23;13.68;;;4.32;;
34832;SDS011;55941;50.800;4.342;2023-04-01T01:04:49;18.30;;;4.10;;
34832;SDS011;55941;50.800;4.342;2023-04-01T01:07:33;18.85;;;4.78;;
34832;SDS011;55941;50.800;4.342;2023-04-01T01:10:21;16.05;;;4.53;;
34832;SDS011;55941;50.800;4.342;2023-04-01T01:15:38;17.73;;;5.03;;
34832;SDS011;55941;50.800;4.342;2023-04-01T01:24:04;16.60;;;4.68;;
34832;SDS011;55941;50.800;4.342;2023-04-01T01:26:40;12.57;;;4.90;;
34832;SDS011;55941;50.800;4.342;2023-04-01T01:32:38;10.43;;;4.22;;
34832;SDS011;55941;50.800;4.342;2023-04-01T01:38:16;12.73;;;4.30;;
34832;SDS011;55941;50.800;4.342;2023-04-01T01:40:46;11.52;;;4.13;;
34832;SDS011;55941;50.800;4.342;2023-04-01T01:43:17;8.82;;;3.38;;
34832;SDS011;55941;50.800;4.342;2023-04-01T01:45:48;14.50;;;3.60;;
34832;SDS011;55941;50.800;4.342;2023-04-01T01:48:18;9.17;;;3.40;;
34832;SDS011;55941;50.800;4.342;2023-04-01T01:50:45;10.98;;;3.85;;
34832;SDS011;55941;50.800;4.342;2023-04-01T01:53:12;13.55;;;3.67;;
34832;SDS011;55941;50.800;4.342;2023-04-01T01:55:40;11.23;;;3.70;;
34832;SDS011;55941;50.800;4.342;2023-04-01T02:00:46;17.00;;;4.68;;
34832;SDS011;55941;50.800;4.342;2023-04-01T02:05:42;17.38;;;5.32;;
34832;SDS011;55941;50.800;4.342;2023-04-01T02:10:39;10.27;;;4.97;;
34832;SDS011;55941;50.800;4.342;2023-04-01T02:13:09;16.98;;;5.57;;
34832;SDS011;55941;50.800;4.342;2023-04-01T02:15:45;11.48;;;4.90;;
34832;SDS011;55941;50.800;4.342;2023-04-01T02:18:14;12.30;;;4.60;;
34832;SDS011;55941;50.800;4.342;2023-04-01T02:20:43;14.52;;;5.90;;
34832;SDS011;55941;50.800;4.342;2023-04-01T02:23:10;14.93;;;5.07;;
34832;SDS011;55941;50.800;4.342;2023-04-01T02:25:36;17.23;;;6.20;;
34832;SDS011;55941;50.800;4.342;2023-04-01T02:28:04;17.42;;;6.00;;
34832;SDS011;55941;50.800;4.342;2023-04-01T02:30:33;18.60;;;5.82;;
34832;SDS011;55941;50.800;4.342;2023-04-01T02:33:01;14.38;;;4.85;;
34832;SDS011;55941;50.800;4.342;2023-04-01T02:35:28;18.05;;;5.80;;
34832;SDS011;55941;50.800;4.342;2023-04-01T02:37:54;13.70;;;4.85;;
34832;SDS011;55941;50.800;4.342;2023-04-01T02:40:21;14.10;;;5.03;;
34832;SDS011;55941;50.800;4.342;2023-04-01T02:42:47;12.98;;;5.63;;
34832;SDS011;55941;50.800;4.342;2023-04-01T02:45:13;29.80;;;5.57;;
34832;SDS011;55941;50.800;4.342;2023-04-01T02:47:39;17.02;;;5.43;;
34832;SDS011;55941;50.800;4.342;2023-04-01T02:50:05;21.20;;;6.00;;
34832;SDS011;55941;50.800;4.342;2023-04-01T02:52:33;16.67;;;5.50;;
34832;SDS011;55941;50.800;4.342;2023-04-01T02:54:59;22.45;;;5.85;;
34832;SDS011;55941;50.800;4.342;2023-04-01T02:57:24;24.00;;;6.55;;
34832;SDS011;55941;50.800;4.342;2023-04-01T02:59:51;23.73;;;6.28;;
34832;SDS011;55941;50.800;4.342;2023-04-01T03:02:17;29.95;;;7.05;;
34832;SDS011;55941;50.800;4.342;2023-04-01T03:04:42;20.02;;;6.43;;
34832;SDS011;55941;50.800;4.342;2023-04-01T03:07:08;27.20;;;7.25;;
34832;SDS011;55941;50.800;4.342;2023-04-01T03:09:37;28.58;;;8.05;;
34832;SDS011;55941;50.800;4.342;2023-04-01T03:12:04;25.65;;;8.43;;
34832;SDS011;55941;50.800;4.342;2023-04-01T03:14:30;26.85;;;9.07;;
34832;SDS011;55941;50.800;4.342;2023-04-01T03:16:56;26.77;;;9.20;;
34832;SDS011;55941;50.800;4.342;2023-04-01T03:19:22;32.33;;;10.93;;
34832;SDS011;55941;50.800;4.342;2023-04-01T03:21:48;26.77;;;11.73;;
34832;SDS011;55941;50.800;4.342;2023-04-01T03:24:13;24.65;;;11.07;;
34832;SDS011;55941;50.800;4.342;2023-04-01T03:26:39;27.05;;;11.88;;
34832;SDS011;55941;50.800;4.342;2023-04-01T03:29:05;30.83;;;12.70;;
34832;SDS011;55941;50.800;4.342;2023-04-01T03:31:30;26.42;;;12.13;;
34832;SDS011;55941;50.800;4.342;2023-04-01T03:33:56;24.08;;;12.25;;
34832;SDS011;55941;50.800;4.342;2023-04-01T03:36:22;29.48;;;12.40;;
34832;SDS011;55941;50.800;4.342;2023-04-01T03:38:48;28.08;;;12.07;;
34832;SDS011;55941;50.800;4.342;2023-04-01T03:41:14;29.27;;;11.90;;
34832;SDS011;55941;50.800;4.342;2023-04-01T03:43:41;31.70;;;10.15;;
34832;SDS011;55941;50.800;4.342;2023-04-01T03:46:07;31.58;;;11.05;;
34832;SDS011;55941;50.800;4.342;2023-04-01T03:48:33;37.80;;;11.68;;
34832;SDS011;55941;50.800;4.342;2023-04-01T03:50:59;42.97;;;12.13;;
34832;SDS011;55941;50.800;4.342;2023-04-01T03:53:25;33.85;;;11.45;;
34832;SDS011;55941;50.800;4.342;2023-04-01T03:55:52;33.28;;;10.88;;
34832;SDS011;55941;50.800;4.342;2023-04-01T03:58:17;33.78;;;10.57;;
34832;SDS011;55941;50.800;4.342;2023-04-01T04:00:43;43.78;;;11.93;;
34832;SDS011;55941;50.800;4.342;2023-04-01T04:03:09;30.73;;;9.70;;
34832;SDS011;55941;50.800;4.342;2023-04-01T04:05:35;30.08;;;10.00;;
34832;SDS011;55941;50.800;4.342;2023-04-01T04:08:01;29.95;;;8.98;;
34832;SDS011;55941;50.800;4.342;2023-04-01T04:10:27;24.50;;;9.18;;
34832;SDS011;55941;50.800;4.342;2023-04-01T04:12:54;26.90;;;9.00;;
34832;SDS011;55941;50.800;4.342;2023-04-01T04:15:20;23.92;;;8.73;;
34832;SDS011;55941;50.800;4.342;2023-04-01T04:17:47;26.42;;;8.90;;
34832;SDS011;55941;50.800;4.342;2023-04-01T04:20:14;27.92;;;9.55;;
34832;SDS011;55941;50.800;4.342;2023-04-01T04:22:40;24.98;;;10.05;;
34832;SDS011;55941;50.800;4.342;2023-04-01T04:25:06;34.00;;;11.27;;
34832;SDS011;55941;50.800;4.342;2023-04-01T04:27:32;28.33;;;10.63;;
34832;SDS011;55941;50.800;4.342;2023-04-01T04:29:58;25.90;;;11.30;;
34832;SDS011;55941;50.800;4.342;2023-04-01T04:32:24;31.50;;;11.95;;
34832;SDS011;55941;50.800;4.342;2023-04-01T04:34:50;29.00;;;11.60;;
34832;SDS011;55941;50.800;4.342;2023-04-01T04:37:16;27.55;;;11.25;;
34832;SDS011;55941;50.800;4.342;2023-04-01T04:39:42;25.92;;;11.63;;
34832;SDS011;55941;50.800;4.342;2023-04-01T04:42:07;25.25;;;11.88;;
34832;SDS011;55941;50.800;4.342;2023-04-01T04:44:33;29.23;;;11.57;;
34832;SDS011;55941;50.800;4.342;2023-04-01T04:46:59;28.92;;;13.05;;
34832;SDS011;55941;50.800;4.342;2023-04-01T04:49:26;23.85;;;12.50;;
34832;SDS011;55941;50.800;4.342;2023-04-01T04:51:52;24.88;;;11.57;;
34832;SDS011;55941;50.800;4.342;2023-04-01T04:54:17;20.60;;;10.88;;
34832;SDS011;55941;50.800;4.342;2023-04-01T04:56:43;25.17;;;10.20;;
34832;SDS011;55941;50.800;4.342;2023-04-01T04:59:09;18.70;;;10.63;;
34832;SDS011;55941;50.800;4.342;2023-04-01T05:01:35;13.25;;;8.60;;
34832;SDS011;55941;50.800;4.342;2023-04-01T05:04:00;18.10;;;8.38;;
34832;SDS011;55941;50.800;4.342;2023-04-01T05:06:26;21.90;;;7.95;;
34832;SDS011;55941;50.800;4.342;2023-04-01T05:08:54;15.10;;;7.10;;
34832;SDS011;55941;50.800;4.342;2023-04-01T05:11:23;16.63;;;7.05;;
34832;SDS011;55941;50.800;4.342;2023-04-01T05:13:50;15.77;;;6.93;;
34832;SDS011;55941;50.800;4.342;2023-04-01T05:16:18;12.85;;;6.70;;
34832;SDS011;55941;50.800;4.342;2023-04-01T05:18:45;14.55;;;6.50;;
34832;SDS011;55941;50.800;4.342;2023-04-01T05:21:12;18.40;;;6.32;;
34832;SDS011;55941;50.800;4.342;2023-04-01T05:23:39;13.95;;;6.88;;
34832;SDS011;55941;50.800;4.342;2023-04-01T05:26:05;18.42;;;8.10;;
34832;SDS011;55941;50.800;4.342;2023-04-01T05:28:33;19.55;;;7.90;;
34832;SDS011;55941;50.800;4.342;2023-04-01T05:30:59;19.05;;;7.88;;
34832;SDS011;55941;50.800;4.342;2023-04-01T05:33:26;15.60;;;7.35;;
34832;SDS011;55941;50.800;4.342;2023-04-01T05:35:53;12.85;;;7.22;;
34832;SDS011;55941;50.800;4.342;2023-04-01T05:38:20;19.13;;;8.15;;
34832;SDS011;55941;50.800;4.342;2023-04-01T05:40:45;14.65;;;7.85;;
34832;SDS011;55941;50.800;4.342;2023-04-01T05:43:11;17.42;;;9.27;;
34832;SDS011;55941;50.800;4.342;2023-04-01T05:45:37;22.10;;;10.65;;
34832;SDS011;55941;50.800;4.342;2023-04-01T05:48:03;27.20;;;10.80;;
34832;SDS011;55941;50.800;4.342;2023-04-01T05:50:29;25.27;;;11.25;;
34832;SDS011;55941;50.800;4.342;2023-04-01T05:52:55;25.33;;;12.38;;
34832;SDS011;55941;50.800;4.342;2023-04-01T05:55:21;32.97;;;12.40;;
34832;SDS011;55941;50.800;4.342;2023-04-01T05:57:47;27.98;;;11.80;;
34832;SDS011;55941;50.800;4.342;2023-04-01T06:00:15;23.42;;;11.73;;
34832;SDS011;55941;50.800;4.342;2023-04-01T06:02:42;20.88;;;10.38;;
34832;SDS011;55941;50.800;4.342;2023-04-01T06:05:17;20.70;;;11.27;;
34832;SDS011;55941;50.800;4.342;2023-04-01T06:07:47;23.80;;;10.30;;
34832;SDS011;55941;50.800;4.342;2023-04-01T06:10:16;22.88;;;11.15;;
34832;SDS011;55941;50.800;4.342;2023-04-01T06:15:39;20.95;;;10.85;;
34832;SDS011;55941;50.800;4.342;2023-04-01T06:18:42;23.33;;;11.25;;
34832;SDS011;55941;50.800;4.342;2023-04-01T06:24:17;22.10;;;10.88;;
34832;SDS011;55941;50.800;4.342;2023-04-01T06:27:01;28.30;;;12.63;;
34832;SDS011;55941;50.800;4.342;2023-04-01T06:29:54;27.42;;;12.40;;
34832;SDS011;55941;50.800;4.342;2023-04-01T06:32:40;25.92;;;12.75;;
34832;SDS011;55941;50.800;4.342;2023-04-01T06:47:03;24.45;;;11.57;;
34832;SDS011;55941;50.800;4.342;2023-04-01T06:49:53;30.02;;;11.07;;
34832;SDS011;55941;50.800;4.342;2023-04-01T06:55:05;28.48;;;10.48;;
34832;SDS011;55941;50.800;4.342;2023-04-01T06:57:34;24.77;;;10.60;;
34832;SDS011;55941;50.800;4.342;2023-04-01T07:00:22;20.98;;;10.20;;
34832;SDS011;55941;50.800;4.342;2023-04-01T07:02:55;18.77;;;9.85;;
34832;SDS011;55941;50.800;4.342;2023-04-01T07:05:33;19.90;;;9.82;;
34832;SDS011;55941;50.800;4.342;2023-04-01T07:08:02;19.80;;;9.70;;
34832;SDS011;55941;50.800;4.342;2023-04-01T07:10:50;15.98;;;9.25;;
34832;SDS011;55941;50.800;4.342;2023-04-01T07:15:57;20.17;;;9.95;;
34832;SDS011;55941;50.800;4.342;2023-04-01T07:19:16;17.60;;;9.52;;
34832;SDS011;55941;50.800;4.342;2023-04-01T07:21:33;16.88;;;8.88;;
34832;SDS011;55941;50.800;4.342;2023-04-01T07:24:15;17.60;;;8.82;;
34832;SDS011;55941;50.800;4.342;2023-04-01T07:26:47;19.63;;;8.63;;
34832;SDS011;55941;50.800;4.342;2023-04-01T07:29:17;13.48;;;8.60;;
34832;SDS011;55941;50.800;4.342;2023-04-01T07:37:21;13.48;;;7.45;;
34832;SDS011;55941;50.800;4.342;2023-04-01T07:51:11;15.25;;;5.30;;
34832;SDS011;55941;50.800;4.342;2023-04-01T07:59:47;5.15;;;3.47;;
34832;SDS011;55941;50.800;4.342;2023-04-01T08:02:06;4.78;;;2.92;;
34832;SDS011;55941;50.800;4.342;2023-04-01T08:04:51;4.40;;;2.55;;
34832;SDS011;55941;50.800;4.342;2023-04-01T08:10:23;11.05;;;3.28;;
34832;SDS011;55941;50.800;4.342;2023-04-01T08:13:10;6.45;;;3.83;;
34832;SDS011;55941;50.800;4.342;2023-04-01T08:21:06;6.45;;;3.47;;
34832;SDS011;55941;50.800;4.342;2023-04-01T08:23:47;4.93;;;2.67;;
34832;SDS011;55941;50.800;4.342;2023-04-01T08:35:01;12.35;;;3.00;;
34832;SDS011;55941;50.800;4.342;2023-04-01T08:37:34;3.72;;;2.20;;
34832;SDS011;55941;50.800;4.342;2023-04-01T08:40:16;8.73;;;2.83;;
34832;SDS011;55941;50.800;4.342;2023-04-01T08:48:40;3.35;;;2.55;;
34832;SDS011;55941;50.800;4.342;2023-04-01T08:51:30;5.22;;;2.00;;
34832;SDS011;55941;50.800;4.342;2023-04-01T08:57:18;4.85;;;2.42;;
34832;SDS011;55941;50.800;4.342;2023-04-01T09:00:11;6.15;;;2.00;;
34832;SDS011;55941;50.800;4.342;2023-04-01T09:02:55;6.50;;;2.40;;
34832;SDS011;55941;50.800;4.342;2023-04-01T09:11:11;3.72;;;2.42;;
34832;SDS011;55941;50.800;4.342;2023-04-01T09:14:07;6.72;;;2.65;;
34832;SDS011;55941;50.800;4.342;2023-04-01T09:26:05;5.07;;;3.33;;
34832;SDS011;55941;50.800;4.342;2023-04-01T09:34:25;3.13;;;2.60;;
34832;SDS011;55941;50.800;4.342;2023-04-01T09:45:20;4.35;;;3.05;;
34832;SDS011;55941;50.800;4.342;2023-04-01T09:48:08;4.55;;;3.03;;
34832;SDS011;55941;50.800;4.342;2023-04-01T09:53:07;3.55;;;2.90;;
34832;SDS011;55941;50.800;4.342;2023-04-01T10:01:30;2.45;;;2.00;;
34832;SDS011;55941;50.800;4.342;2023-04-01T10:06:46;2.50;;;1.27;;
34832;SDS011;55941;50.800;4.342;2023-04-01T10:12:28;2.00;;;1.30;;
34832;SDS011;55941;50.800;4.342;2023-04-01T10:26:31;5.82;;;1.30;;
34832;SDS011;55941;50.800;4.342;2023-04-01T11:05:38;4.80;;;1.90;;
34832;SDS011;55941;50.800;4.342;2023-04-01T11:45:44;2.17;;;1.30;;
34832;SDS011;55941;50.800;4.342;2023-04-01T11:48:24;4.47;;;1.60;;
34832;SDS011;55941;50.800;4.342;2023-04-01T11:53:49;2.97;;;1.60;;
34832;SDS011;55941;50.800;4.342;2023-04-01T11:59:29;3.20;;;1.27;;
34832;SDS011;55941;50.800;4.342;2023-04-01T12:24:34;3.38;;;1.88;;
34832;SDS011;55941;50.800;4.342;2023-04-01T12:36:20;6.45;;;2.63;;
34832;SDS011;55941;50.800;4.342;2023-04-01T12:50:46;7.15;;;3.80;;
34832;SDS011;55941;50.800;4.342;2023-04-01T12:59:38;5.18;;;3.30;;
34832;SDS011;55941;50.800;4.342;2023-04-01T13:02:22;5.65;;;3.25;;
34832;SDS011;55941;50.800;4.342;2023-04-01T13:10:37;10.77;;;3.60;;
34832;SDS011;55941;50.800;4.342;2023-04-01T13:18:58;5.47;;;3.40;;
34832;SDS011;55941;50.800;4.342;2023-04-01T13:29:34;4.72;;;2.33;;
34832;SDS011;55941;50.800;4.342;2023-04-01T13:32:09;3.78;;;2.20;;
34832;SDS011;55941;50.800;4.342;2023-04-01T13:37:32;4.93;;;2.63;;
34832;SDS011;55941;50.800;4.342;2023-04-01T13:42:57;3.55;;;1.92;;
34832;SDS011;55941;50.800;4.342;2023-04-01T13:53:50;7.32;;;2.60;;
34832;SDS011;55941;50.800;4.342;2023-04-01T13:56:33;4.28;;;2.05;;
34832;SDS011;55941;50.800;4.342;2023-04-01T13:59:31;5.45;;;2.58;;
34832;SDS011;55941;50.800;4.342;2023-04-01T14:10:43;4.00;;;2.70;;
34832;SDS011;55941;50.800;4.342;2023-04-01T14:13:37;6.55;;;2.75;;
34832;SDS011;55941;50.800;4.342;2023-04-01T14:19:08;7.47;;;2.25;;
34832;SDS011;55941;50.800;4.342;2023-04-01T14:22:05;4.28;;;2.47;;
34832;SDS011;55941;50.800;4.342;2023-04-01T14:27:39;5.45;;;2.20;;
34832;SDS011;55941;50.800;4.342;2023-04-01T14:35:37;2.45;;;1.38;;
34832;SDS011;55941;50.800;4.342;2023-04-01T14:46:51;2.80;;;1.50;;
34832;SDS011;55941;50.800;4.342;2023-04-01T14:49:42;2.08;;;1.30;;
34832;SDS011;55941;50.800;4.342;2023-04-01T14:52:13;2.85;;;1.10;;
34832;SDS011;55941;50.800;4.342;2023-04-01T14:54:46;2.80;;;0.80;;
34832;SDS011;55941;50.800;4.342;2023-04-01T14:57:15;1.63;;;0.90;;
34832;SDS011;55941;50.800;4.342;2023-04-01T14:59:51;1.75;;;1.08;;
34832;SDS011;55941;50.800;4.342;2023-04-01T15:02:37;1.40;;;0.98;;
34832;SDS011;55941;50.800;4.342;2023-04-01T15:05:24;2.72;;;0.80;;
34832;SDS011;55941;50.800;4.342;2023-04-01T15:18:54;2.05;;;1.00;;
34832;SDS011;55941;50.800;4.342;2023-04-01T15:21:43;2.20;;;1.35;;
34832;SDS011;55941;50.800;4.342;2023-04-01T15:25:30;6.18;;;1.30;;
34832;SDS011;55941;50.800;4.342;2023-04-01T15:32:57;2.30;;;1.45;;
34832;SDS011;55941;50.800;4.342;2023-04-01T15:35:39;2.22;;;1.27;;
34832;SDS011;55941;50.800;4.342;2023-04-01T15:38:22;3.65;;;1.55;;
34832;SDS011;55941;50.800;4.342;2023-04-01T15:48:47;2.22;;;1.00;;
34832;SDS011;55941;50.800;4.342;2023-04-01T15:57:10;2.33;;;1.00;;
34832;SDS011;55941;50.800;4.342;2023-04-01T16:00:19;1.85;;;0.80;;
34832;SDS011;55941;50.800;4.342;2023-04-01T16:03:19;4.10;;;0.50;;
34832;SDS011;55941;50.800;4.342;2023-04-01T16:14:11;5.03;;;0.80;;
34832;SDS011;55941;50.800;4.342;2023-04-01T16:36:19;2.05;;;1.00;;
34832;SDS011;55941;50.800;4.342;2023-04-01T16:42:16;2.35;;;1.15;;
34832;SDS011;55941;50.800;4.342;2023-04-01T16:47:22;3.78;;;1.50;;
34832;SDS011;55941;50.800;4.342;2023-04-01T16:50:05;3.22;;;1.30;;
34832;SDS011;55941;50.800;4.342;2023-04-01T16:52:48;2.55;;;1.40;;
34832;SDS011;55941;50.800;4.342;2023-04-01T16:55:35;3.50;;;1.50;;
34832;SDS011;55941;50.800;4.342;2023-04-01T16:58:37;5.63;;;1.38;;
34832;SDS011;55941;50.800;4.342;2023-04-01T17:01:09;3.15;;;1.40;;
34832;SDS011;55941;50.800;4.342;2023-04-01T17:03:44;3.55;;;1.63;;
34832;SDS011;55941;50.800;4.342;2023-04-01T17:06:19;3.75;;;1.50;;
34832;SDS011;55941;50.800;4.342;2023-04-01T17:09:15;5.45;;;1.70;;
34832;SDS011;55941;50.800;4.342;2023-04-01T17:12:32;3.80;;;1.92;;
34832;SDS011;55941;50.800;4.342;2023-04-01T17:15:17;2.60;;;1.48;;
34832;SDS011;55941;50.800;4.342;2023-04-01T17:20:38;2.25;;;1.30;;
34832;SDS011;55941;50.800;4.342;2023-04-01T17:23:12;3.70;;;1.77;;
34832;SDS011;55941;50.800;4.342;2023-04-01T17:28:37;3.72;;;1.40;;
34832;SDS011;55941;50.800;4.342;2023-04-01T17:40:29;5.57;;;1.95;;
34832;SDS011;55941;50.800;4.342;2023-04-01T17:46:04;3.70;;;2.05;;
34832;SDS011;55941;50.800;4.342;2023-04-01T17:48:55;6.68;;;2.20;;
34832;SDS011;55941;50.800;4.342;2023-04-01T17:54:41;6.55;;;1.98;;
34832;SDS011;55941;50.800;4.342;2023-04-01T17:57:27;3.78;;;2.17;;
34832;SDS011;55941;50.800;4.342;2023-04-01T18:25:28;5.57;;;2.90;;
34832;SDS011;55941;50.800;4.342;2023-04-01T18:38:54;4.65;;;3.55;;
34832;SDS011;55941;50.800;4.342;2023-04-01T18:44:10;6.85;;;4.00;;
34832;SDS011;55941;50.800;4.342;2023-04-01T18:46:59;6.68;;;4.30;;
34832;SDS011;55941;50.800;4.342;2023-04-01T18:52:54;8.75;;;4.85;;
34832;SDS011;55941;50.800;4.342;2023-04-01T18:55:37;9.05;;;5.55;;
34832;SDS011;55941;50.800;4.342;2023-04-01T18:58:12;10.00;;;5.80;;
34832;SDS011;55941;50.800;4.342;2023-04-01T19:01:01;12.70;;;6.38;;
34832;SDS011;55941;50.800;4.342;2023-04-01T19:03:45;12.27;;;7.20;;
34832;SDS011;55941;50.800;4.342;2023-04-01T19:06:34;14.52;;;6.38;;
34832;SDS011;55941;50.800;4.342;2023-04-01T19:09:19;7.80;;;5.63;;
34832;SDS011;55941;50.800;4.342;2023-04-01T19:12:03;10.82;;;6.68;;
34832;SDS011;55941;50.800;4.342;2023-04-01T19:17:48;15.32;;;8.02;;
34832;SDS011;55941;50.800;4.342;2023-04-01T19:25:42;15.05;;;9.82;;
34832;SDS011;55941;50.800;4.342;2023-04-01T19:31:38;20.23;;;12.13;;
34832;SDS011;55941;50.800;4.342;2023-04-01T19:51:30;32.40;;;17.83;;
34832;SDS011;55941;50.800;4.342;2023-04-01T19:54:05;31.40;;;17.80;;
34832;SDS011;55941;50.800;4.342;2023-04-01T19:57:04;21.02;;;14.40;;
34832;SDS011;55941;50.800;4.342;2023-04-01T19:59:43;25.88;;;15.48;;
34832;SDS011;55941;50.800;4.342;2023-04-01T20:02:38;28.70;;;16.25;;
34832;SDS011;55941;50.800;4.342;2023-04-01T20:08:00;32.08;;;15.90;;
34832;SDS011;55941;50.800;4.342;2023-04-01T20:11:00;23.00;;;14.80;;
34832;SDS011;55941;50.800;4.342;2023-04-01T20:13:46;25.48;;;15.98;;
34832;SDS011;55941;50.800;4.342;2023-04-01T20:16:13;33.05;;;15.40;;
34832;SDS011;55941;50.800;4.342;2023-04-01T20:21:20;28.48;;;15.65;;
34832;SDS011;55941;50.800;4.342;2023-04-01T20:26:40;31.67;;;16.58;;
34832;SDS011;55941;50.800;4.342;2023-04-01T20:29:22;31.40;;;17.02;;
34832;SDS011;55941;50.800;4.342;2023-04-01T20:32:24;34.78;;;16.38;;
34832;SDS011;55941;50.800;4.342;2023-04-01T20:37:48;30.67;;;16.60;;
34832;SDS011;55941;50.800;4.342;2023-04-01T20:45:52;28.75;;;15.30;;
34832;SDS011;55941;50.800;4.342;2023-04-01T20:59:16;34.00;;;16.40;;
34832;SDS011;55941;50.800;4.342;2023-04-01T21:15:48;57.33;;;20.50;;
34832;SDS011;55941;50.800;4.342;2023-04-01T21:21:38;47.75;;;22.67;;
34832;SDS011;55941;50.800;4.342;2023-04-01T21:32:25;57.03;;;26.55;;
34832;SDS011;55941;50.800;4.342;2023-04-01T21:35:41;51.38;;;24.80;;
34832;SDS011;55941;50.800;4.342;2023-04-01T21:55:56;38.58;;;22.50;;
34832;SDS011;55941;50.800;4.342;2023-04-01T21:58:52;43.85;;;21.58;;
34832;SDS011;55941;50.800;4.342;2023-04-01T22:06:34;29.88;;;16.60;;
34832;SDS011;55941;50.800;4.342;2023-04-01T22:09:10;40.42;;;19.67;;
34832;SDS011;55941;50.800;4.342;2023-04-01T22:14:24;28.75;;;16.92;;
34832;SDS011;55941;50.800;4.342;2023-04-01T22:17:13;34.10;;;17.20;;
34832;SDS011;55941;50.800;4.342;2023-04-01T22:25:34;28.75;;;16.02;;
34832;SDS011;55941;50.800;4.342;2023-04-01T22:28:12;25.73;;;16.15;;
34832;SDS011;55941;50.800;4.342;2023-04-01T22:30:50;23.60;;;15.65;;
34832;SDS011;55941;50.800;4.342;2023-04-01T22:36:26;20.15;;;14.23;;
34832;SDS011;55941;50.800;4.342;2023-04-01T22:39:03;19.95;;;13.63;;
34832;SDS011;55941;50.800;4.342;2023-04-01T22:50:14;25.83;;;20.00;;
34832;SDS011;55941;50.800;4.342;2023-04-01T22:52:44;28.33;;;21.48;;
34832;SDS011;55941;50.800;4.342;2023-04-01T23:05:52;24.63;;;21.13;;
34832;SDS011;55941;50.800;4.342;2023-04-01T23:13:52;18.98;;;16.98;;
34832;SDS011;55941;50.800;4.342;2023-04-01T23:16:33;17.38;;;15.55;;
34832;SDS011;55941;50.800;4.342;2023-04-01T23:19:08;17.25;;;15.43;;
34832;SDS011;55941;50.800;4.342;2023-04-01T23:21:40;15.23;;;13.63;;
34832;SDS011;55941;50.800;4.342;2023-04-01T23:29:31;17.05;;;14.77;;
34832;SDS011;55941;50.800;4.342;2023-04-01T23:32:02;17.13;;;14.48;;
34832;SDS011;55941;50.800;4.342;2023-04-01T23:34:34;17.95;;;16.00;;
34832;SDS011;55941;50.800;4.342;2023-04-01T23:37:05;19.73;;;17.20;;
34832;SDS011;55941;50.800;4.342;2023-04-01T23:39:42;19.75;;;16.92;;
34832;SDS011;55941;50.800;4.342;2023-04-01T23:44:46;18.67;;;16.52;;
34832;SDS011;55941;50.800;4.342;2023-04-01T23:47:20;17.63;;;15.73;;
34832;SDS011;55941;50.800;4.342;2023-04-01T23:49:58;22.50;;;16.85;;
34832;SDS011;55941;50.800;4.342;2023-04-01T23:52:28;19.60;;;16.55;;
34832;SDS011;55941;50.800;4.342;2023-04-01T23:55:08;18.42;;;16.38;;
34832;SDS011;55941;50.800;4.342;2023-04-01T23:57:37;21.65;;;17.92;;
